createdAt,value
2022-09-03T00:02:22.733Z,25.27
2022-09-03T00:05:05.475Z,25.25
2022-09-03T00:07:37.845Z,25.23
2022-09-03T00:10:16.245Z,25.22
2022-09-03T00:12:46.897Z,25.18
2022-09-03T00:15:18.643Z,25.16
2022-09-03T00:17:52.243Z,25.15
2022-09-03T00:20:33.554Z,25.14
2022-09-03T00:23:06.154Z,25.12
2022-09-03T00:25:52.627Z,25.11
2022-09-03T00:28:26.095Z,25.10
2022-09-03T00:31:22.119Z,25.13
2022-09-03T00:33:53.089Z,25.16
2022-09-03T00:36:44.264Z,25.19
2022-09-03T00:39:21.662Z,25.23
2022-09-03T00:42:20.443Z,25.29
2022-09-03T00:45:09.474Z,25.33
2022-09-03T00:48:12.351Z,25.35
2022-09-03T00:51:17.122Z,25.38
2022-09-03T00:54:18.440Z,25.37
2022-09-03T00:57:12.024Z,25.38
2022-09-03T00:59:59.174Z,25.39
2022-09-03T01:02:35.673Z,25.37
2022-09-03T01:05:27.683Z,25.39
2022-09-03T01:08:04.018Z,25.37
2022-09-03T01:10:46.339Z,25.37
2022-09-03T01:13:24.945Z,25.37
2022-09-03T01:16:11.005Z,25.34
2022-09-03T01:18:46.069Z,25.31
2022-09-03T01:21:48.854Z,25.31
2022-09-03T01:24:47.449Z,25.30
2022-09-03T01:27:32.551Z,25.29
2022-09-03T01:30:04.762Z,25.30
2022-09-03T01:32:38.122Z,25.30
2022-09-03T01:35:29.867Z,25.33
2022-09-03T01:38:15.492Z,25.30
2022-09-03T01:41:20.461Z,25.25
2022-09-03T01:43:53.953Z,25.21
2022-09-03T01:46:30.501Z,25.19
2022-09-03T01:49:22.874Z,25.17
2022-09-03T01:52:16.415Z,25.16
2022-09-03T01:55:07.350Z,25.18
2022-09-03T01:57:57.141Z,25.17
2022-09-03T02:00:26.213Z,25.15
2022-09-03T02:02:54.016Z,25.14
2022-09-03T02:05:27.959Z,25.13
2022-09-03T02:07:55.081Z,25.13
2022-09-03T02:10:30.623Z,25.13
2022-09-03T02:13:13.868Z,25.10
2022-09-03T02:15:43.628Z,25.08
2022-09-03T02:18:17.344Z,25.03
2022-09-03T02:20:47.085Z,25.03
2022-09-03T02:23:15.185Z,25.02
2022-09-03T02:25:48.389Z,25.01
2022-09-03T02:28:17.042Z,25.00
2022-09-03T02:30:45.285Z,24.98
2022-09-03T02:33:13.173Z,24.98
2022-09-03T02:35:41.395Z,24.98
2022-09-03T02:38:14.373Z,24.98
2022-09-03T02:40:41.628Z,24.98
2022-09-03T02:43:19.150Z,24.94
2022-09-03T02:45:49.563Z,24.88
2022-09-03T02:48:23.421Z,24.84
2022-09-03T02:50:50.709Z,24.82
2022-09-03T02:53:18.061Z,24.85
2022-09-03T02:55:45.507Z,24.88
2022-09-03T02:58:12.983Z,24.90
2022-09-03T03:00:40.314Z,24.93
2022-09-03T03:03:07.542Z,24.95
2022-09-03T03:05:58.318Z,25.00
2022-09-03T03:08:29.271Z,25.00
2022-09-03T03:10:59.018Z,24.99
2022-09-03T03:13:27.705Z,24.97
2022-09-03T03:16:03.623Z,24.96
2022-09-03T03:18:30.818Z,24.91
2022-09-03T03:20:58.429Z,24.88
2022-09-03T03:23:25.526Z,24.86
2022-09-03T03:25:52.737Z,24.83
2022-09-03T03:28:20.490Z,24.80
2022-09-03T03:30:49.226Z,24.81
2022-09-03T03:33:16.482Z,24.80
2022-09-03T03:35:43.936Z,24.79
2022-09-03T03:38:11.234Z,24.79
2022-09-03T03:40:39.460Z,24.78
2022-09-03T03:43:06.725Z,24.84
2022-09-03T03:45:33.886Z,24.81
2022-09-03T03:48:01.070Z,24.77
2022-09-03T03:50:28.424Z,24.73
2022-09-03T03:52:56.481Z,24.68
2022-09-03T03:55:23.794Z,24.64
2022-09-03T03:57:54.508Z,24.57
2022-09-03T04:00:21.902Z,24.53
2022-09-03T04:02:52.223Z,24.50
2022-09-03T04:05:23.223Z,24.48
2022-09-03T04:07:51.267Z,24.50
2022-09-03T04:10:18.464Z,24.50
2022-09-03T04:12:46.240Z,24.52
2022-09-03T04:15:13.559Z,24.57
2022-09-03T04:17:40.809Z,24.56
2022-09-03T04:20:08.178Z,24.51
2022-09-03T04:22:35.452Z,24.48
2022-09-03T04:25:02.584Z,24.49
2022-09-03T04:27:29.870Z,24.51
2022-09-03T04:29:56.989Z,24.47
2022-09-03T04:32:42.624Z,24.45
2022-09-03T04:35:10.161Z,24.50
2022-09-03T04:37:40.751Z,24.61
2022-09-03T04:40:08.438Z,24.64
2022-09-03T04:42:35.566Z,24.67
2022-09-03T04:45:02.810Z,24.66
2022-09-03T04:47:30.145Z,24.65
2022-09-03T04:49:57.734Z,24.79
2022-09-03T04:52:25.494Z,25.00
2022-09-03T04:54:52.981Z,25.02
2022-09-03T04:57:20.247Z,25.06
2022-09-03T04:59:47.611Z,25.02
2022-09-03T05:02:15.798Z,25.04
2022-09-03T05:04:43.236Z,25.11
2022-09-03T05:07:10.534Z,25.06
2022-09-03T05:09:37.806Z,25.07
2022-09-03T05:12:05.233Z,25.08
2022-09-03T05:14:32.825Z,25.13
2022-09-03T05:17:00.050Z,25.15
2022-09-03T05:19:27.406Z,25.07
2022-09-03T05:21:54.513Z,24.96
2022-09-03T05:24:21.621Z,25.02
2022-09-03T05:26:49.186Z,25.15
2022-09-03T05:29:16.355Z,25.27
2022-09-03T05:31:43.705Z,25.46
2022-09-03T05:34:16.327Z,25.80
2022-09-03T05:36:44.064Z,26.01
2022-09-03T05:39:11.179Z,25.99
2022-09-03T05:41:38.529Z,26.02
2022-09-03T05:44:06.300Z,25.95
2022-09-03T05:46:34.367Z,25.95
2022-09-03T05:49:03.275Z,26.16
2022-09-03T05:51:31.343Z,26.80
2022-09-03T05:53:59.450Z,27.54
2022-09-03T05:56:28.625Z,28.00
2022-09-03T05:59:00.285Z,28.26
2022-09-03T06:01:33.730Z,28.56
2022-09-03T06:04:04.560Z,28.22
2022-09-03T06:06:33.905Z,28.00
2022-09-03T06:09:07.082Z,27.95
2022-09-03T06:11:37.443Z,27.80
2022-09-03T06:14:06.972Z,27.71
2022-09-03T06:16:39.970Z,28.15
2022-09-03T06:19:09.823Z,29.58
2022-09-03T06:21:42.962Z,30.20
2022-09-03T06:24:26.220Z,29.86
2022-09-03T06:26:54.001Z,29.83
2022-09-03T06:29:21.145Z,29.38
2022-09-03T06:31:51.664Z,29.58
2022-09-03T06:34:19.173Z,29.85
2022-09-03T06:36:46.462Z,29.65
2022-09-03T06:39:13.772Z,29.80
2022-09-03T06:41:40.947Z,29.70
2022-09-03T06:44:12.155Z,29.88
2022-09-03T06:46:42.864Z,30.51
2022-09-03T06:49:11.819Z,31.54
2022-09-03T06:51:40.007Z,31.50
2022-09-03T06:54:09.892Z,31.55
2022-09-03T06:56:40.643Z,31.99
2022-09-03T06:59:13.120Z,32.57
2022-09-03T07:01:44.640Z,32.82
2022-09-03T07:04:13.726Z,32.82
2022-09-03T07:06:42.859Z,33.01
2022-09-03T07:09:12.080Z,33.02
2022-09-03T07:11:47.395Z,32.98
2022-09-03T07:14:16.716Z,32.83
2022-09-03T07:16:44.033Z,32.75
2022-09-03T07:19:13.634Z,32.64
2022-09-03T07:21:45.240Z,32.45
2022-09-03T07:24:15.669Z,32.33
2022-09-03T07:26:44.905Z,32.32
2022-09-03T07:29:13.318Z,32.30
2022-09-03T07:31:42.230Z,32.29
2022-09-03T07:34:12.774Z,32.18
2022-09-03T07:36:43.255Z,32.12
2022-09-03T07:39:12.704Z,32.16
2022-09-03T07:41:43.531Z,32.14
2022-09-03T07:44:11.157Z,31.71
2022-09-03T07:46:39.329Z,32.22
2022-09-03T07:49:06.839Z,32.31
2022-09-03T07:51:37.304Z,31.90
2022-09-03T07:54:07.874Z,32.24
2022-09-03T07:56:36.122Z,32.31
2022-09-03T07:59:04.773Z,32.16
2022-09-03T08:01:33.196Z,32.11
2022-09-03T08:04:02.080Z,31.79
2022-09-03T08:06:30.939Z,31.40
2022-09-03T08:09:04.897Z,31.62
2022-09-03T08:11:36.347Z,31.51
2022-09-03T08:14:07.732Z,31.12
2022-09-03T08:16:43.471Z,30.86
2022-09-03T08:19:12.265Z,30.72
2022-09-03T08:21:42.415Z,30.78
2022-09-03T08:24:11.286Z,30.35
2022-09-03T08:26:45.274Z,30.31
2022-09-03T08:29:13.669Z,30.11
2022-09-03T08:31:41.048Z,29.81
2022-09-03T08:34:08.756Z,29.40
2022-09-03T08:36:38.266Z,29.24
2022-09-03T08:39:10.967Z,29.10
2022-09-03T08:41:53.573Z,28.71
2022-09-03T08:44:30.064Z,28.55
2022-09-03T08:46:58.020Z,28.55
2022-09-03T08:49:52.617Z,28.41
2022-09-03T08:52:42.018Z,28.40
2022-09-03T08:55:20.975Z,28.39
2022-09-03T08:57:51.674Z,28.44
2022-09-03T09:00:19.623Z,28.51
2022-09-03T09:03:04.784Z,28.41
2022-09-03T09:05:46.390Z,28.54
2022-09-03T09:08:59.264Z,28.64
2022-09-03T09:11:35.050Z,28.61
2022-09-03T09:14:27.299Z,28.50
2022-09-03T09:17:13.585Z,28.58
2022-09-03T09:20:02.375Z,28.51
2022-09-03T09:22:41.576Z,28.57
2022-09-03T09:25:15.440Z,28.46
2022-09-03T09:27:59.958Z,28.45
2022-09-03T09:30:29.450Z,28.71
2022-09-03T09:32:57.673Z,28.64
2022-09-03T09:35:24.920Z,28.66
2022-09-03T09:37:52.231Z,28.86
2022-09-03T09:40:34.107Z,28.73
2022-09-03T09:43:14.246Z,28.78
2022-09-03T09:45:46.306Z,28.64
2022-09-03T09:48:34.330Z,28.60
2022-09-03T09:51:11.407Z,28.62
2022-09-03T09:53:40.090Z,28.64
2022-09-03T09:56:08.408Z,28.47
2022-09-03T09:58:36.591Z,28.65
2022-09-03T10:01:13.720Z,28.55
2022-09-03T10:03:57.978Z,28.42
2022-09-03T10:06:50.140Z,28.44
2022-09-03T10:09:20.294Z,28.68
2022-09-03T10:12:19.912Z,28.70
2022-09-03T10:14:47.929Z,28.92
2022-09-03T10:17:46.843Z,29.02
2022-09-03T10:20:44.712Z,28.82
2022-09-03T10:23:18.759Z,28.77
2022-09-03T10:26:10.028Z,28.48
2022-09-03T10:28:42.686Z,28.46
2022-09-03T10:31:16.438Z,28.58
2022-09-03T10:34:09.989Z,28.81
2022-09-03T10:36:40.991Z,28.66
2022-09-03T10:39:21.467Z,28.70
2022-09-03T10:42:14.013Z,28.79
2022-09-03T10:45:10.890Z,28.86
2022-09-03T10:48:07.746Z,28.91
2022-09-03T10:50:51.343Z,28.75
2022-09-03T10:53:50.427Z,28.57
2022-09-03T10:56:33.810Z,28.98
2022-09-03T10:59:29.270Z,28.96
2022-09-03T11:02:22.065Z,28.83
2022-09-03T11:05:01.439Z,28.63
2022-09-03T11:07:58.825Z,28.68
2022-09-03T11:10:30.806Z,28.64
2022-09-03T11:13:11.034Z,28.66
2022-09-03T11:15:56.875Z,28.63
2022-09-03T11:18:35.138Z,28.73
2022-09-03T11:21:10.123Z,28.94
2022-09-03T11:23:44.762Z,28.85
2022-09-03T11:26:15.989Z,28.86
2022-09-03T11:28:58.247Z,28.99
2022-09-03T11:31:49.253Z,29.08
2022-09-03T11:34:33.437Z,29.31
2022-09-03T11:37:21.479Z,29.15
2022-09-03T11:40:17.640Z,29.09
2022-09-03T11:42:46.122Z,29.04
2022-09-03T11:45:25.512Z,29.10
2022-09-03T11:47:54.535Z,29.10
2022-09-03T11:50:27.390Z,28.97
2022-09-03T11:53:10.977Z,28.97
2022-09-03T11:55:47.589Z,28.99
2022-09-03T11:58:31.357Z,29.04
2022-09-03T12:00:59.322Z,29.08
2022-09-03T12:04:00.274Z,29.19
2022-09-03T12:06:33.594Z,29.18
2022-09-03T12:09:28.801Z,29.21
2022-09-03T12:12:01.024Z,28.85
2022-09-03T12:14:47.332Z,28.86
2022-09-03T12:17:14.479Z,28.93
2022-09-03T12:19:51.568Z,29.04
2022-09-03T12:22:20.708Z,29.07
2022-09-03T12:24:48.385Z,28.95
2022-09-03T12:27:22.882Z,28.69
2022-09-03T12:29:58.201Z,28.93
2022-09-03T12:32:27.027Z,29.04
2022-09-03T12:34:54.987Z,29.10
2022-09-03T12:40:32.926Z,28.91
2022-09-03T12:46:10.694Z,29.04
2022-09-03T12:48:40.502Z,28.95
2022-09-03T12:53:59.199Z,28.99
2022-09-03T12:56:29.206Z,28.97
2022-09-03T12:59:10.045Z,29.03
2022-09-03T13:01:49.645Z,28.92
2022-09-03T13:04:27.161Z,28.88
2022-09-03T13:07:01.310Z,28.92
2022-09-03T13:09:30.598Z,29.07
2022-09-03T13:11:59.436Z,29.13
2022-09-03T13:14:27.655Z,29.10
2022-09-03T13:17:11.489Z,29.15
2022-09-03T13:19:50.967Z,29.07
2022-09-03T13:22:39.289Z,29.09
2022-09-03T13:25:30.600Z,28.87
2022-09-03T13:28:42.917Z,28.82
2022-09-03T13:31:26.149Z,28.76
2022-09-03T13:34:05.749Z,28.75
2022-09-03T13:36:45.809Z,28.81
2022-09-03T13:39:47.942Z,28.85
2022-09-03T13:42:27.696Z,28.77
2022-09-03T13:45:06.940Z,28.79
2022-09-03T13:48:41.420Z,28.86
2022-09-03T13:51:37.810Z,28.67
2022-09-03T13:54:48.245Z,28.53
2022-09-03T13:57:32.894Z,28.68
2022-09-03T14:00:10.905Z,28.79
2022-09-03T14:02:53.872Z,28.70
2022-09-03T14:05:59.162Z,28.69
2022-09-03T14:08:55.382Z,28.60
2022-09-03T14:12:01.360Z,28.70
2022-09-03T14:14:31.538Z,28.71
2022-09-03T14:17:11.729Z,28.78
2022-09-03T14:20:00.867Z,28.69
2022-09-03T14:22:56.933Z,28.73
2022-09-03T14:25:29.287Z,28.63
2022-09-03T14:28:14.140Z,28.80
2022-09-03T14:30:55.984Z,28.82
2022-09-03T14:33:28.959Z,28.80
2022-09-03T14:36:03.278Z,28.84
2022-09-03T14:39:16.348Z,28.66
2022-09-03T14:42:02.253Z,28.62
2022-09-03T14:44:44.386Z,28.42
2022-09-03T14:47:43.489Z,28.34
2022-09-03T14:50:55.088Z,28.49
2022-09-03T14:53:50.099Z,28.58
2022-09-03T14:56:49.786Z,28.60
2022-09-03T14:59:55.458Z,28.62
2022-09-03T15:02:28.950Z,28.51
2022-09-03T15:05:01.940Z,28.39
2022-09-03T15:07:47.821Z,28.24
2022-09-03T15:10:21.014Z,28.25
2022-09-03T15:13:14.635Z,28.26
2022-09-03T15:15:52.530Z,28.39
2022-09-03T15:18:38.556Z,28.44
2022-09-03T15:21:14.985Z,28.43
2022-09-03T15:23:52.073Z,28.47
2022-09-03T15:26:40.485Z,28.48
2022-09-03T15:29:37.033Z,28.39
2022-09-03T15:32:10.292Z,28.32
2022-09-03T15:34:55.263Z,28.23
2022-09-03T15:37:59.888Z,28.31
2022-09-03T15:40:50.712Z,28.43
2022-09-03T15:43:22.150Z,28.42
2022-09-03T15:45:57.924Z,28.44
2022-09-03T15:48:40.444Z,28.35
2022-09-03T15:51:17.840Z,28.32
2022-09-03T15:53:53.005Z,28.34
2022-09-03T15:56:28.247Z,28.32
2022-09-03T15:59:21.386Z,28.35
2022-09-03T16:01:55.453Z,28.27
2022-09-03T16:04:50.872Z,28.20
2022-09-03T16:07:39.921Z,28.22
2022-09-03T16:10:25.373Z,28.11
2022-09-03T16:13:07.003Z,27.98
2022-09-03T16:15:45.903Z,28.02
2022-09-03T16:18:37.651Z,27.99
2022-09-03T16:21:23.158Z,27.97
2022-09-03T16:24:26.099Z,27.98
2022-09-03T16:27:11.546Z,27.94
2022-09-03T16:29:39.640Z,27.86
2022-09-03T16:32:27.246Z,27.85
2022-09-03T16:35:26.665Z,27.78
2022-09-03T16:38:15.736Z,27.77
2022-09-03T16:41:04.872Z,27.71
2022-09-03T16:43:43.144Z,27.69
2022-09-03T16:46:24.168Z,27.63
2022-09-03T16:49:01.387Z,27.65
2022-09-03T16:51:44.914Z,27.60
2022-09-03T16:54:31.085Z,27.62
2022-09-03T16:57:40.530Z,27.62
2022-09-03T17:00:22.067Z,27.52
2022-09-03T17:03:04.783Z,27.45
2022-09-03T17:06:09.666Z,27.36
2022-09-03T17:09:00.704Z,27.30
2022-09-03T17:12:10.965Z,27.30
2022-09-03T17:14:50.678Z,27.31
2022-09-03T17:17:20.921Z,27.23
2022-09-03T17:20:09.363Z,27.21
2022-09-03T17:23:02.021Z,27.22
2022-09-03T17:25:52.076Z,27.20
2022-09-03T17:28:41.401Z,27.13
2022-09-03T17:31:18.214Z,27.07
2022-09-03T17:34:23.594Z,27.04
2022-09-03T17:37:33.034Z,26.99
2022-09-03T17:40:30.937Z,27.02
2022-09-03T17:43:04.063Z,27.06
2022-09-03T17:46:08.796Z,27.02
2022-09-03T17:48:50.690Z,26.99
2022-09-03T17:51:46.647Z,26.98
2022-09-03T17:54:44.638Z,27.00
2022-09-03T17:57:39.503Z,26.96
2022-09-03T18:00:26.141Z,26.96
2022-09-03T18:03:07.453Z,26.94
2022-09-03T18:05:53.863Z,26.92
2022-09-03T18:08:20.982Z,26.88
2022-09-03T18:11:07.509Z,26.86
2022-09-03T18:13:50.705Z,26.85
2022-09-03T18:16:33.390Z,26.87
2022-09-03T18:19:29.483Z,26.88
2022-09-03T18:22:20.973Z,26.84
2022-09-03T18:25:17.950Z,26.82
2022-09-03T18:28:12.877Z,26.80
2022-09-03T18:30:58.740Z,26.80
2022-09-03T18:33:46.067Z,26.75
2022-09-03T18:36:39.371Z,26.74
2022-09-03T18:39:34.017Z,26.73
2022-09-03T18:42:50.882Z,26.74
2022-09-03T18:49:18.635Z,26.72
2022-09-03T18:52:25.070Z,26.73
2022-09-03T18:55:13.918Z,26.71
2022-09-03T18:58:17.362Z,26.69
2022-09-03T19:01:38.743Z,26.67
2022-09-03T19:05:02.399Z,26.62
2022-09-03T19:08:07.387Z,26.63
2022-09-03T19:11:08.180Z,26.62
2022-09-03T19:13:57.405Z,26.58
2022-09-03T19:17:05.239Z,26.56
2022-09-03T19:20:14.755Z,26.58
2022-09-03T19:23:01.134Z,26.56
2022-09-03T19:25:48.734Z,26.57
2022-09-03T19:28:48.413Z,26.57
2022-09-03T19:32:16.036Z,26.54
2022-09-03T19:35:16.983Z,26.55
2022-09-03T19:38:31.899Z,26.55
2022-09-03T19:41:45.933Z,26.53
2022-09-03T19:44:50.258Z,26.53
2022-09-03T19:47:51.285Z,26.55
2022-09-03T19:50:42.076Z,26.55
2022-09-03T19:53:37.748Z,26.56
2022-09-03T19:56:47.752Z,26.55
2022-09-03T19:59:44.519Z,26.55
2022-09-03T20:02:30.151Z,26.54
2022-09-03T20:05:19.365Z,26.57
2022-09-03T20:08:09.084Z,26.55
2022-09-03T20:10:37.635Z,26.55
2022-09-03T20:13:16.455Z,26.51
2022-09-03T20:15:51.322Z,26.49
2022-09-03T20:18:37.176Z,26.48
2022-09-03T20:21:18.889Z,26.48
2022-09-03T20:24:04.489Z,26.47
2022-09-03T20:27:05.446Z,26.47
2022-09-03T20:29:51.057Z,26.48
2022-09-03T20:32:33.421Z,26.47
2022-09-03T20:35:03.681Z,26.48
2022-09-03T20:38:09.926Z,26.47
2022-09-03T20:40:53.167Z,26.46
2022-09-03T20:44:09.532Z,26.47
2022-09-03T20:46:48.637Z,26.46
2022-09-03T20:49:53.947Z,26.46
2022-09-03T20:52:33.038Z,26.46
2022-09-03T20:55:20.253Z,26.43
2022-09-03T20:58:01.388Z,26.44
2022-09-03T21:00:45.378Z,26.42
2022-09-03T21:03:22.092Z,26.49
2022-09-03T21:05:58.512Z,26.50
2022-09-03T21:08:38.174Z,26.51
2022-09-03T21:11:14.682Z,26.51
2022-09-03T21:14:17.336Z,26.47
2022-09-03T21:16:56.667Z,26.46
2022-09-03T21:19:48.037Z,26.42
2022-09-03T21:22:42.453Z,26.40
2022-09-03T21:25:33.935Z,26.43
2022-09-03T21:28:08.486Z,26.41
2022-09-03T21:30:40.954Z,26.39
2022-09-03T21:33:23.625Z,26.36
2022-09-03T21:35:59.642Z,26.34
2022-09-03T21:38:34.862Z,26.31
2022-09-03T21:41:12.999Z,26.32
2022-09-03T21:43:48.573Z,26.31
2022-09-03T21:46:15.835Z,26.30
2022-09-03T21:48:58.639Z,26.30
2022-09-03T21:51:33.757Z,26.35
2022-09-03T21:54:13.366Z,26.38
2022-09-03T21:57:05.394Z,26.42
2022-09-03T22:00:09.217Z,26.43
2022-09-03T22:02:42.240Z,26.47
2022-09-03T22:05:09.847Z,26.50
2022-09-03T22:07:56.030Z,26.53
2022-09-03T22:10:48.978Z,26.55
2022-09-03T22:13:44.488Z,26.58
2022-09-03T22:16:32.333Z,26.65
2022-09-03T22:18:59.770Z,26.63
2022-09-03T22:21:36.546Z,26.60
2022-09-03T22:24:07.631Z,26.62
2022-09-03T22:26:53.165Z,26.62
2022-09-03T22:29:51.339Z,26.61
2022-09-03T22:32:33.912Z,26.57
2022-09-03T22:35:06.989Z,26.55
2022-09-03T22:37:34.171Z,26.53
2022-09-03T22:40:42.062Z,26.49
2022-09-03T22:43:42.552Z,26.50
2022-09-03T22:46:16.614Z,26.51
2022-09-03T22:49:01.862Z,26.53
2022-09-03T22:51:37.243Z,26.49
2022-09-03T22:54:19.698Z,26.48
2022-09-03T22:56:47.080Z,26.46
2022-09-03T22:59:56.223Z,26.46
2022-09-03T23:02:27.837Z,26.46
2022-09-03T23:05:08.952Z,26.44
2022-09-03T23:08:09.714Z,26.41
2022-09-03T23:10:45.230Z,26.37
2022-09-03T23:13:19.991Z,26.33
2022-09-03T23:15:56.220Z,26.30
2022-09-03T23:18:27.345Z,26.28
2022-09-03T23:21:12.261Z,26.18
2022-09-03T23:24:09.643Z,26.13
2022-09-03T23:26:43.025Z,26.05
2022-09-03T23:29:43.505Z,25.99
2022-09-03T23:32:10.884Z,25.93
2022-09-03T23:34:40.835Z,25.92
2022-09-03T23:37:33.199Z,25.89
2022-09-03T23:40:15.925Z,25.87
2022-09-03T23:43:03.649Z,25.83
2022-09-03T23:46:00.602Z,25.79
2022-09-03T23:48:36.891Z,25.75
2022-09-03T23:51:23.828Z,25.71
2022-09-03T23:53:51.049Z,25.66
2022-09-03T23:56:26.949Z,25.62
2022-09-03T23:59:30.079Z,25.56
